createdAt,value
2023-04-02T00:01:06.520Z,101367.88
2023-04-02T00:04:00.784Z,101374.41
2023-04-02T00:06:30.477Z,101379.69
2023-04-02T00:09:01.306Z,101377.91
2023-04-02T00:11:34.512Z,101382.66
2023-04-02T00:14:02.746Z,101379.56
2023-04-02T00:16:29.919Z,101392.22
2023-04-02T00:19:02.773Z,101391.69
2023-04-02T00:21:32.993Z,101388.19
2023-04-02T00:24:01.605Z,101384.47
2023-04-02T00:26:33.121Z,101398.91
2023-04-02T00:29:02.407Z,101393.47
2023-04-02T00:31:29.894Z,101408.34
2023-04-02T00:33:58.222Z,101415.69
2023-04-02T00:36:26.656Z,101416.47
2023-04-02T00:39:03.176Z,101421.75
2023-04-02T00:41:36.179Z,101427.16
2023-04-02T00:44:03.523Z,101427.53
2023-04-02T00:46:47.283Z,101435.84
2023-04-02T00:49:38.142Z,101441.38
2023-04-02T00:52:09.501Z,101443.31
2023-04-02T00:54:43.977Z,101446.34
2023-04-02T00:57:18.073Z,101445.78
2023-04-02T01:00:19.917Z,101454.34
2023-04-02T01:03:18.387Z,101463.94
2023-04-02T01:06:01.648Z,101471.94
2023-04-02T01:08:43.010Z,101479.50
2023-04-02T01:11:20.683Z,101478.13
2023-04-02T01:14:13.708Z,101483.09
2023-04-02T01:16:50.528Z,101490.97
2023-04-02T01:19:35.635Z,101491.28
2023-04-02T01:22:12.070Z,101503.50
2023-04-02T01:24:38.942Z,101485.34
2023-04-02T01:27:14.448Z,101499.19
2023-04-02T01:29:48.662Z,101501.78
2023-04-02T01:32:19.763Z,101510.81
2023-04-02T01:35:01.599Z,101507.88
2023-04-02T01:37:49.632Z,101514.88
2023-04-02T01:40:51.524Z,101518.03
2023-04-02T01:43:27.114Z,101530.06
2023-04-02T01:45:53.872Z,101530.63
2023-04-02T01:48:27.448Z,101530.84
2023-04-02T01:50:56.949Z,101530.06
2023-04-02T01:53:27.143Z,101547.09
2023-04-02T01:55:57.909Z,101546.06
2023-04-02T01:58:27.248Z,101551.81
2023-04-02T02:01:04.219Z,101550.91
2023-04-02T02:03:31.299Z,101557.19
2023-04-02T02:05:59.428Z,101571.63
2023-04-02T02:08:30.042Z,101574.53
2023-04-02T02:10:57.140Z,101583.19
2023-04-02T02:13:23.796Z,101576.44
2023-04-02T02:15:50.871Z,101587.13
2023-04-02T02:18:23.525Z,101583.38
2023-04-02T02:20:52.015Z,101593.41
2023-04-02T02:23:20.016Z,101598.81
2023-04-02T02:25:49.058Z,101603.75
2023-04-02T02:28:21.531Z,101611.84
2023-04-02T02:30:50.959Z,101613.19
2023-04-02T02:33:25.488Z,101613.19
2023-04-02T02:36:11.953Z,101613.72
2023-04-02T02:38:58.102Z,101624.97
2023-04-02T02:41:35.443Z,101626.56
2023-04-02T02:44:16.084Z,101624.47
2023-04-02T02:47:00.228Z,101634.69
2023-04-02T02:49:31.921Z,101644.03
2023-04-02T02:52:07.709Z,101642.13
2023-04-02T02:54:37.039Z,101646.22
2023-04-02T02:57:08.625Z,101662.41
2023-04-02T02:59:36.242Z,101666.81
2023-04-02T03:02:05.407Z,101663.13
2023-04-02T03:04:37.450Z,101671.84
2023-04-02T03:07:06.667Z,101671.97
2023-04-02T03:09:39.351Z,101683.22
2023-04-02T03:12:27.610Z,101688.31
2023-04-02T03:15:13.649Z,101691.84
2023-04-02T03:17:54.218Z,101696.59
2023-04-02T03:20:32.567Z,101704.50
2023-04-02T03:23:22.169Z,101706.28
2023-04-02T03:25:59.363Z,101716.47
2023-04-02T03:28:33.165Z,101715.16
2023-04-02T03:31:08.584Z,101725.84
2023-04-02T03:33:43.168Z,101738.88
2023-04-02T03:36:28.582Z,101741.28
2023-04-02T03:39:15.027Z,101752.72
2023-04-02T03:41:47.916Z,101743.47
2023-04-02T03:44:31.150Z,101750.69
2023-04-02T03:47:03.987Z,101763.25
2023-04-02T03:49:38.433Z,101763.72
2023-04-02T03:52:09.466Z,101775.63
2023-04-02T03:54:40.908Z,101777.34
2023-04-02T03:57:36.931Z,101780.38
2023-04-02T04:00:14.427Z,101794.56
2023-04-02T04:02:46.393Z,101799.47
2023-04-02T04:05:29.219Z,101799.53
2023-04-02T04:08:02.440Z,101803.03
2023-04-02T04:10:29.941Z,101806.19
2023-04-02T04:13:04.242Z,101811.44
2023-04-02T04:15:42.126Z,101817.50
2023-04-02T04:18:24.372Z,101826.66
2023-04-02T04:21:03.507Z,101833.81
2023-04-02T04:23:37.209Z,101842.38
2023-04-02T04:26:19.553Z,101845.09
2023-04-02T04:29:06.388Z,101852.78
2023-04-02T04:31:46.933Z,101861.19
2023-04-02T04:34:19.134Z,101866.09
2023-04-02T04:36:55.232Z,101874.50
2023-04-02T04:39:41.611Z,101879.41
2023-04-02T04:42:18.196Z,101887.19
2023-04-02T04:47:38.812Z,101898.66
2023-04-02T04:50:09.318Z,101894.22
2023-04-02T04:52:38.652Z,101908.19
2023-04-02T04:55:35.033Z,101912.94
2023-04-02T04:58:16.892Z,101916.41
2023-04-02T05:00:55.338Z,101924.34
2023-04-02T05:03:33.367Z,101926.25
2023-04-02T05:06:05.903Z,101928.78
2023-04-02T05:08:36.919Z,101937.81
2023-04-02T05:11:13.845Z,101942.09
2023-04-02T05:13:54.798Z,101950.97
2023-04-02T05:16:39.046Z,101961.44
2023-04-02T05:19:09.731Z,101958.13
2023-04-02T05:21:47.414Z,101975.06
2023-04-02T05:24:51.427Z,101983.28
2023-04-02T05:27:28.734Z,101988.34
2023-04-02T05:30:05.066Z,101992.09
2023-04-02T05:32:36.048Z,101997.00
2023-04-02T05:35:06.561Z,102007.47
2023-04-02T05:37:33.895Z,102006.97
2023-04-02T05:40:13.573Z,102014.88
2023-04-02T05:42:47.626Z,102025.91
2023-04-02T05:45:24.625Z,102029.81
2023-04-02T05:47:57.357Z,102029.38
2023-04-02T05:50:38.319Z,102035.09
2023-04-02T05:53:23.090Z,102049.72
2023-04-02T05:55:59.808Z,102047.81
2023-04-02T05:58:37.345Z,102056.22
2023-04-02T06:01:17.814Z,102062.34
2023-04-02T06:03:51.817Z,102068.84
2023-04-02T06:06:42.632Z,102072.41
2023-04-02T06:09:18.613Z,102084.38
2023-04-02T06:11:50.329Z,102087.56
2023-04-02T06:14:17.711Z,102098.84
2023-04-02T06:16:46.368Z,102104.81
2023-04-02T06:19:21.253Z,102114.66
2023-04-02T06:21:51.437Z,102121.16
2023-04-02T06:24:24.352Z,102126.25
2023-04-02T06:26:58.056Z,102133.56
2023-04-02T06:29:34.007Z,102138.44
2023-04-02T06:32:02.172Z,102143.38
2023-04-02T06:34:30.870Z,102142.47
2023-04-02T06:37:02.528Z,102151.50
2023-04-02T06:39:29.710Z,102149.00
2023-04-02T06:42:11.912Z,102155.19
2023-04-02T06:44:38.532Z,102155.97
2023-04-02T06:47:18.452Z,102162.19
2023-04-02T06:49:51.323Z,102168.38
2023-04-02T06:52:30.097Z,102172.97
2023-04-02T06:54:57.868Z,102178.16
2023-04-02T06:57:25.746Z,102176.25
2023-04-02T06:59:53.415Z,102193.66
2023-04-02T07:02:29.132Z,102198.38
2023-04-02T07:05:04.300Z,102202.19
2023-04-02T07:07:31.573Z,102210.78
2023-04-02T07:09:58.145Z,102215.75
2023-04-02T07:12:26.722Z,102220.34
2023-04-02T07:14:54.644Z,102230.53
2023-04-02T07:17:22.828Z,102232.97
2023-04-02T07:19:49.771Z,102231.69
2023-04-02T07:22:17.824Z,102244.53
2023-04-02T07:24:45.871Z,102243.94
2023-04-02T07:27:14.277Z,102255.59
2023-04-02T07:29:43.008Z,102256.16
2023-04-02T07:32:12.415Z,102264.31
2023-04-02T07:34:48.964Z,102264.94
2023-04-02T07:37:16.544Z,102270.53
2023-04-02T07:39:50.727Z,102274.69
2023-04-02T07:42:17.382Z,102280.28
2023-04-02T07:44:44.140Z,102287.63
2023-04-02T07:47:11.032Z,102283.75
2023-04-02T07:49:37.593Z,102289.44
2023-04-02T07:52:05.086Z,102287.06
2023-04-02T07:54:31.719Z,102299.72
2023-04-02T07:56:58.365Z,102298.16
2023-04-02T08:02:23.008Z,102302.88
2023-04-02T08:04:52.841Z,102306.25
2023-04-02T08:07:19.450Z,102318.56
2023-04-02T08:09:46.017Z,102322.47
2023-04-02T08:12:15.905Z,102331.53
2023-04-02T08:14:43.320Z,102328.09
2023-04-02T08:17:10.052Z,102325.81
2023-04-02T08:19:51.770Z,102332.06
2023-04-02T08:22:27.828Z,102344.97
2023-04-02T08:24:55.093Z,102345.34
2023-04-02T08:27:22.102Z,102357.69
2023-04-02T08:29:48.821Z,102342.50
2023-04-02T08:32:16.310Z,102361.97
2023-04-02T08:34:45.136Z,102365.53
2023-04-02T08:37:31.111Z,102375.22
2023-04-02T08:43:07.685Z,102390.03
2023-04-02T08:49:02.778Z,102388.75
2023-04-02T08:51:34.968Z,102398.13
2023-04-02T08:54:14.708Z,102394.03
2023-04-02T08:56:49.474Z,102414.25
2023-04-02T08:59:23.129Z,102414.25
2023-04-02T09:01:56.516Z,102428.69
2023-04-02T09:04:25.171Z,102425.59
2023-04-02T09:06:55.073Z,102425.19
2023-04-02T09:09:23.174Z,102435.34
2023-04-02T09:11:55.460Z,102432.94
2023-04-02T09:14:41.332Z,102434.72
2023-04-02T09:17:23.300Z,102449.34
2023-04-02T09:20:00.951Z,102437.16
2023-04-02T09:22:31.639Z,102454.31
2023-04-02T09:25:01.219Z,102452.63
2023-04-02T09:27:30.663Z,102460.34
2023-04-02T09:30:18.389Z,102465.91
2023-04-02T09:32:50.547Z,102467.31
2023-04-02T09:35:26.645Z,102476.53
2023-04-02T09:38:09.073Z,102483.38
2023-04-02T09:40:52.364Z,102480.16
2023-04-02T09:43:26.567Z,102490.44
2023-04-02T09:46:02.555Z,102477.38
2023-04-02T09:48:37.898Z,102476.56
2023-04-02T09:51:06.742Z,102478.34
2023-04-02T09:53:37.284Z,102478.06
2023-04-02T09:56:24.055Z,102476.84
2023-04-02T09:59:06.432Z,102485.97
2023-04-02T10:01:37.629Z,102487.41
2023-04-02T10:04:06.706Z,102495.06
2023-04-02T10:06:34.466Z,102488.19
2023-04-02T10:09:29.403Z,102498.34
2023-04-02T10:11:57.494Z,102502.06
2023-04-02T10:14:29.255Z,102505.28
2023-04-02T10:17:01.277Z,102508.66
2023-04-02T10:19:34.590Z,102507.09
2023-04-02T10:22:05.562Z,102511.88
2023-04-02T10:24:32.219Z,102519.09
2023-04-02T10:27:22.911Z,102513.59
2023-04-02T10:30:06.542Z,102516.31
2023-04-02T10:32:42.428Z,102516.34
2023-04-02T10:35:19.523Z,102520.97
2023-04-02T10:37:46.333Z,102524.81
2023-04-02T10:40:27.057Z,102530.09
2023-04-02T10:43:28.350Z,102525.31
2023-04-02T10:46:02.930Z,102534.25
2023-04-02T10:48:52.776Z,102525.63
2023-04-02T10:51:46.307Z,102529.78
2023-04-02T10:54:18.864Z,102530.56
2023-04-02T10:56:51.183Z,102530.44
2023-04-02T10:59:23.640Z,102527.56
2023-04-02T11:01:52.646Z,102537.56
2023-04-02T11:04:27.597Z,102538.81
2023-04-02T11:07:03.885Z,102536.28
2023-04-02T11:09:43.790Z,102548.56
2023-04-02T11:12:23.395Z,102554.75
2023-04-02T11:14:51.609Z,102554.25
2023-04-02T11:17:20.520Z,102562.03
2023-04-02T11:19:47.453Z,102552.84
2023-04-02T11:22:18.235Z,102554.44
2023-04-02T11:24:49.740Z,102553.91
2023-04-02T11:27:22.775Z,102553.06
2023-04-02T11:29:55.610Z,102557.78
2023-04-02T11:32:22.163Z,102562.44
2023-04-02T11:34:53.821Z,102567.06
2023-04-02T11:37:44.603Z,102574.34
2023-04-02T11:40:12.246Z,102582.47
2023-04-02T11:42:40.928Z,102590.44
2023-04-02T11:45:21.887Z,102586.09
2023-04-02T11:48:02.318Z,102586.81
2023-04-02T11:50:31.937Z,102582.31
2023-04-02T11:53:05.139Z,102592.97
2023-04-02T11:55:34.327Z,102591.03
2023-04-02T11:58:10.162Z,102589.88
2023-04-02T12:01:17.616Z,102592.44
2023-04-02T12:03:51.638Z,102607.56
2023-04-02T12:06:39.969Z,102604.47
2023-04-02T12:09:17.143Z,102609.06
2023-04-02T12:11:44.855Z,102599.59
2023-04-02T12:14:30.127Z,102603.13
2023-04-02T12:16:57.958Z,102612.47
2023-04-02T12:19:26.013Z,102621.22
2023-04-02T12:21:53.660Z,102621.69
2023-04-02T12:24:23.385Z,102622.06
2023-04-02T12:27:08.571Z,102627.88
2023-04-02T12:29:36.305Z,102630.56
2023-04-02T12:32:04.053Z,102625.66
2023-04-02T12:34:31.119Z,102627.38
2023-04-02T12:37:00.255Z,102631.44
2023-04-02T12:39:28.469Z,102630.44
2023-04-02T12:41:55.939Z,102627.84
2023-04-02T12:44:25.761Z,102630.38
2023-04-02T12:46:52.806Z,102629.97
2023-04-02T12:49:30.813Z,102641.94
2023-04-02T12:51:58.112Z,102638.53
2023-04-02T12:54:24.776Z,102640.72
2023-04-02T12:56:51.759Z,102642.47
2023-04-02T12:59:36.344Z,102646.66
2023-04-02T13:02:17.071Z,102643.97
2023-04-02T13:04:49.152Z,102640.19
2023-04-02T13:07:18.346Z,102643.97
2023-04-02T13:09:49.282Z,102651.81
2023-04-02T13:12:24.886Z,102647.44
2023-04-02T13:14:56.592Z,102648.38
2023-04-02T13:17:40.607Z,102652.34
2023-04-02T13:20:27.828Z,102650.94
2023-04-02T13:22:54.414Z,102656.38
2023-04-02T13:25:30.881Z,102656.03
2023-04-02T13:27:58.144Z,102655.84
2023-04-02T13:30:27.506Z,102660.81
2023-04-02T13:33:18.992Z,102661.16
2023-04-02T13:36:15.505Z,102660.13
2023-04-02T13:38:42.521Z,102661.06
2023-04-02T13:41:23.199Z,102659.22
2023-04-02T13:43:51.348Z,102660.28
2023-04-02T13:46:22.554Z,102668.69
2023-04-02T13:48:51.401Z,102669.47
2023-04-02T13:51:19.930Z,102668.69
2023-04-02T13:53:52.438Z,102674.91
2023-04-02T13:56:19.757Z,102668.44
2023-04-02T13:58:46.728Z,102675.47
2023-04-02T14:01:17.326Z,102679.56
2023-04-02T19:36:12.994Z,103039.66
2023-04-02T19:43:22.907Z,103049.94
2023-04-02T20:08:09.530Z,103063.09
2023-04-02T20:20:09.628Z,103072.25
2023-04-02T20:39:38.211Z,103101.19
2023-04-02T20:42:13.410Z,103108.50
2023-04-02T20:52:13.449Z,103116.69
2023-04-02T21:05:35.518Z,103129.59
2023-04-02T21:09:25.504Z,103133.19
2023-04-02T21:12:02.337Z,103133.47
2023-04-02T21:20:43.782Z,103139.53
2023-04-02T21:23:12.145Z,103149.56
2023-04-02T21:29:29.013Z,103156.44
2023-04-02T21:34:44.938Z,103163.59
2023-04-02T21:37:54.221Z,103165.50
2023-04-02T21:43:25.991Z,103158.06
2023-04-02T21:49:01.366Z,103165.34
2023-04-02T21:51:55.878Z,103172.75
2023-04-02T21:54:46.919Z,103164.41
2023-04-02T21:57:26.901Z,103172.22
2023-04-02T21:59:57.389Z,103176.00
2023-04-02T22:05:13.108Z,103167.56
2023-04-02T22:08:01.052Z,103167.31
2023-04-02T22:10:47.965Z,103173.59
2023-04-02T22:13:16.315Z,103176.91
2023-04-02T22:16:12.833Z,103177.19
2023-04-02T22:18:47.404Z,103179.63
2023-04-02T22:21:24.030Z,103178.84
2023-04-02T22:23:52.906Z,103179.72
2023-04-02T22:26:39.324Z,103182.47
2023-04-02T22:29:06.163Z,103183.31
2023-04-02T22:31:35.652Z,103183.88
2023-04-02T22:34:05.167Z,103189.59
2023-04-02T22:36:32.212Z,103177.47
2023-04-02T22:38:59.995Z,103185.06
2023-04-02T22:41:29.045Z,103179.94
2023-04-02T22:43:57.309Z,103175.41
2023-04-02T22:46:39.308Z,103187.06
2023-04-02T22:49:07.408Z,103185.22
2023-04-02T22:51:37.294Z,103185.25
2023-04-02T22:57:05.305Z,103190.19
2023-04-02T22:59:32.020Z,103193.72
2023-04-02T23:02:00.320Z,103199.16
2023-04-02T23:04:27.214Z,103202.72
2023-04-02T23:06:54.899Z,103206.78
2023-04-02T23:09:21.559Z,103203.56
2023-04-02T23:11:48.383Z,103206.03
2023-04-02T23:14:15.125Z,103205.53
2023-04-02T23:16:41.808Z,103201.47
2023-04-02T23:19:08.567Z,103203.16
2023-04-02T23:21:35.395Z,103203.97
2023-04-02T23:24:06.616Z,103202.84
2023-04-02T23:26:39.464Z,103201.25
2023-04-02T23:29:06.607Z,103205.84
2023-04-02T23:31:40.668Z,103200.22
2023-04-02T23:34:07.384Z,103208.31
2023-04-02T23:36:35.034Z,103208.31
2023-04-02T23:39:07.983Z,103210.22
2023-04-02T23:41:37.023Z,103209.69
2023-04-02T23:44:04.884Z,103215.13
2023-04-02T23:46:32.456Z,103215.94
2023-04-02T23:49:00.225Z,103213.25
2023-04-02T23:51:28.718Z,103215.47
2023-04-02T23:53:55.604Z,103218.94
2023-04-02T23:56:25.117Z,103217.31
2023-04-02T23:58:52.133Z,103217.63
